createdAt,value
2019-01-25T00:00:41.665Z,94.90
2019-01-25T00:03:11.662Z,95.30
2019-01-25T00:05:39.765Z,95.10
2019-01-25T00:08:08.179Z,95.30
2019-01-25T00:10:36.308Z,95.60
2019-01-25T00:13:04.653Z,95.70
2019-01-25T00:15:32.727Z,95.70
2019-01-25T00:18:00.849Z,95.70
2019-01-25T00:20:28.888Z,96.10
2019-01-25T00:22:57.096Z,96.90
2019-01-25T00:25:25.182Z,97.10
2019-01-25T00:27:53.448Z,96.90
2019-01-25T00:30:21.662Z,97.10
2019-01-25T00:32:49.728Z,96.90
2019-01-25T00:35:17.820Z,97.20
2019-01-25T00:37:45.976Z,97.30
2019-01-25T00:40:16.288Z,97.20
2019-01-25T00:42:44.555Z,97.40
2019-01-25T00:45:13.754Z,97.60
2019-01-25T00:47:42.103Z,97.70
2019-01-25T00:50:16.003Z,97.30
2019-01-25T00:52:44.363Z,96.40
2019-01-25T00:55:12.700Z,96.70
2019-01-25T00:57:40.964Z,96.20
2019-01-25T01:00:16.773Z,96.40
2019-01-25T01:02:45.039Z,96.50
2019-01-25T01:05:14.513Z,95.90
2019-01-25T01:07:42.655Z,96.20
2019-01-25T01:10:14.149Z,96.70
2019-01-25T01:12:41.504Z,97.30
2019-01-25T01:15:10.856Z,97.80
2019-01-25T01:17:39.088Z,97.20
2019-01-25T01:20:11.307Z,96.50
2019-01-25T01:22:40.022Z,96.20
2019-01-25T01:25:09.510Z,96.50
2019-01-25T01:27:37.858Z,96.20
2019-01-25T01:30:08.836Z,96.30
2019-01-25T01:32:36.824Z,96.40
2019-01-25T01:35:06.124Z,96.30
2019-01-25T01:37:34.337Z,96.20
2019-01-25T01:40:05.562Z,96.00
2019-01-25T01:42:33.659Z,96.40
2019-01-25T01:45:01.734Z,97.60
2019-01-25T01:47:29.973Z,96.90
2019-01-25T01:49:58.001Z,96.40
2019-01-25T01:52:26.040Z,96.60
2019-01-25T01:54:54.163Z,96.50
2019-01-25T01:57:22.306Z,96.30
2019-01-25T01:59:50.362Z,96.40
2019-01-25T02:02:18.567Z,96.00
2019-01-25T02:04:46.783Z,96.10
2019-01-25T02:07:14.904Z,96.10
2019-01-25T02:09:43.247Z,95.80
2019-01-25T02:12:11.547Z,95.80
2019-01-25T02:14:39.749Z,96.00
2019-01-25T02:17:07.870Z,96.40
2019-01-25T02:19:35.988Z,96.20
2019-01-25T02:22:04.160Z,96.40
2019-01-25T02:24:32.358Z,96.80
2019-01-25T02:27:00.481Z,97.60
2019-01-25T02:29:28.782Z,97.70
2019-01-25T02:31:56.935Z,97.50
2019-01-25T02:34:25.086Z,97.50
2019-01-25T02:36:53.197Z,97.40
2019-01-25T02:39:21.400Z,97.60
2019-01-25T02:41:49.819Z,97.60
2019-01-25T02:44:17.969Z,97.50
2019-01-25T02:46:46.072Z,97.80
2019-01-25T02:49:14.125Z,97.90
2019-01-25T02:51:42.356Z,97.70
2019-01-25T02:54:10.486Z,97.40
2019-01-25T02:56:38.692Z,98.20
2019-01-25T02:59:06.723Z,98.70
2019-01-25T03:01:34.790Z,98.70
2019-01-25T03:04:03.982Z,99.00
2019-01-25T03:06:32.160Z,99.70
2019-01-25T03:09:00.480Z,99.30
2019-01-25T03:11:28.771Z,98.70
2019-01-25T03:13:57.264Z,98.80
2019-01-25T03:16:25.573Z,99.10
2019-01-25T03:18:54.213Z,98.70
2019-01-25T03:21:22.294Z,98.90
2019-01-25T03:23:50.376Z,98.80
2019-01-25T03:26:18.589Z,99.00
2019-01-25T03:28:46.660Z,99.10
2019-01-25T03:31:14.841Z,99.00
2019-01-25T03:33:42.931Z,99.10
2019-01-25T03:36:11.089Z,99.70
2019-01-25T03:38:39.399Z,99.90
2019-01-25T03:41:07.493Z,99.70
2019-01-25T03:43:35.646Z,99.60
2019-01-25T03:46:04.646Z,99.60
2019-01-25T03:48:33.118Z,99.00
2019-01-25T03:51:01.153Z,98.50
2019-01-25T03:53:29.312Z,98.90
2019-01-25T03:55:57.462Z,99.30
2019-01-25T03:58:25.522Z,99.10
2019-01-25T04:00:53.649Z,99.70
2019-01-25T04:03:21.813Z,99.90
2019-01-25T04:05:50.412Z,99.90
2019-01-25T04:08:18.571Z,99.90
2019-01-25T04:10:46.775Z,99.90
2019-01-25T04:13:15.001Z,99.90
2019-01-25T04:15:43.142Z,99.40
2019-01-25T04:18:11.190Z,99.90
2019-01-25T04:20:39.248Z,99.90
2019-01-25T04:23:07.506Z,99.90
2019-01-25T04:25:35.583Z,99.90
2019-01-25T04:28:05.673Z,99.90
2019-01-25T04:30:33.861Z,99.70
2019-01-25T04:33:01.909Z,99.40
2019-01-25T04:35:29.943Z,99.40
2019-01-25T04:37:58.101Z,99.60
2019-01-25T04:40:26.353Z,99.90
2019-01-25T04:42:54.500Z,99.70
2019-01-25T04:45:22.661Z,99.30
2019-01-25T04:47:51.484Z,99.60
2019-01-25T04:50:22.234Z,99.90
2019-01-25T04:52:50.904Z,99.90
2019-01-25T04:55:28.576Z,99.80
2019-01-25T04:58:15.885Z,99.90
2019-01-25T05:00:44.141Z,99.50
2019-01-25T05:03:12.884Z,99.70
2019-01-25T05:05:41.190Z,99.90
2019-01-25T05:08:16.052Z,99.70
2019-01-25T05:10:44.638Z,99.60
2019-01-25T05:13:12.662Z,99.80
2019-01-25T05:15:40.915Z,99.90
2019-01-25T05:18:09.579Z,99.90
2019-01-25T05:20:37.618Z,99.90
2019-01-25T05:23:07.399Z,99.30
2019-01-25T05:25:35.580Z,95.60
2019-01-25T05:28:18.661Z,94.40
2019-01-25T05:31:06.928Z,96.30
2019-01-25T05:33:35.441Z,95.70
2019-01-25T05:36:05.252Z,94.30
2019-01-25T05:38:33.304Z,93.90
2019-01-25T05:41:01.561Z,94.00
2019-01-25T05:43:38.868Z,93.90
2019-01-25T05:46:07.014Z,93.50
2019-01-25T05:48:35.127Z,94.30
2019-01-25T05:51:05.464Z,95.70
2019-01-25T05:53:33.515Z,99.60
2019-01-25T05:56:01.645Z,99.90
2019-01-25T05:58:29.692Z,98.90
2019-01-25T06:00:57.790Z,98.10
2019-01-25T06:03:25.917Z,98.00
2019-01-25T06:06:01.268Z,98.90
2019-01-25T06:08:33.338Z,99.90
2019-01-25T06:11:09.822Z,99.90
2019-01-25T06:13:40.064Z,99.90
2019-01-25T06:16:08.344Z,99.90
2019-01-25T06:18:36.486Z,98.30
2019-01-25T06:21:05.753Z,98.50
2019-01-25T06:23:33.785Z,97.40
2019-01-25T06:26:02.401Z,97.40
2019-01-25T06:28:30.435Z,97.40
2019-01-25T06:30:58.547Z,97.50
2019-01-25T06:33:26.937Z,97.50
2019-01-25T06:35:55.029Z,97.60
2019-01-25T06:38:23.082Z,97.80
2019-01-25T06:40:51.116Z,97.60
2019-01-25T06:43:19.694Z,97.60
2019-01-25T06:45:47.818Z,97.60
2019-01-25T06:48:16.514Z,97.50
2019-01-25T06:50:44.594Z,97.30
2019-01-25T06:53:12.622Z,96.90
2019-01-25T06:55:40.817Z,97.10
2019-01-25T06:58:43.340Z,97.90
2019-01-25T07:01:27.954Z,99.00
2019-01-25T07:03:55.972Z,99.70
2019-01-25T07:06:24.008Z,98.70
2019-01-25T07:08:52.074Z,97.90
2019-01-25T07:11:20.279Z,97.90
2019-01-25T07:13:48.385Z,97.00
2019-01-25T07:16:16.504Z,93.90
2019-01-25T07:18:44.590Z,94.80
2019-01-25T07:21:12.687Z,94.60
2019-01-25T07:23:40.815Z,94.90
2019-01-25T07:26:08.968Z,94.90
2019-01-25T07:28:37.112Z,94.60
2019-01-25T07:31:05.350Z,94.80
2019-01-25T07:33:33.407Z,94.80
2019-01-25T07:36:01.781Z,94.50
2019-01-25T07:38:30.197Z,94.70
2019-01-25T07:40:58.324Z,94.80
2019-01-25T07:43:26.401Z,94.20
2019-01-25T07:45:54.499Z,94.00
2019-01-25T07:48:22.553Z,93.80
2019-01-25T07:50:50.764Z,93.30
2019-01-25T07:53:18.950Z,93.20
2019-01-25T07:55:47.765Z,93.30
2019-01-25T07:58:15.888Z,93.60
2019-01-25T08:00:44.190Z,92.60
2019-01-25T08:03:12.325Z,93.10
2019-01-25T08:05:41.131Z,93.20
2019-01-25T08:08:09.307Z,93.40
2019-01-25T08:10:37.511Z,93.60
2019-01-25T08:13:05.629Z,93.50
2019-01-25T08:15:33.902Z,93.70
2019-01-25T08:18:02.104Z,93.00
2019-01-25T08:20:30.150Z,93.10
2019-01-25T08:22:58.303Z,93.20
2019-01-25T08:25:26.455Z,92.30
2019-01-25T08:27:54.512Z,92.50
2019-01-25T08:30:22.760Z,92.30
2019-01-25T08:32:50.999Z,92.70
2019-01-25T08:35:20.069Z,93.00
2019-01-25T08:37:48.237Z,92.60
2019-01-25T08:40:16.596Z,92.20
2019-01-25T08:42:45.314Z,92.00
2019-01-25T08:45:14.133Z,91.90
2019-01-25T08:47:43.547Z,93.20
2019-01-25T08:50:15.761Z,91.10
2019-01-25T08:52:43.877Z,91.50
2019-01-25T08:55:12.927Z,91.00
2019-01-25T08:57:41.318Z,90.80
2019-01-25T09:00:16.766Z,90.50
2019-01-25T09:02:45.186Z,90.40
2019-01-25T09:05:13.521Z,89.60
2019-01-25T09:07:41.763Z,88.20
2019-01-25T09:10:13.558Z,88.30
2019-01-25T09:12:41.727Z,87.90
2019-01-25T09:15:15.302Z,88.30
2019-01-25T09:17:43.596Z,88.60
2019-01-25T09:20:15.610Z,88.20
2019-01-25T09:22:43.735Z,86.80
2019-01-25T09:25:11.961Z,87.50
2019-01-25T09:27:40.166Z,87.20
2019-01-25T09:30:12.584Z,88.50
2019-01-25T09:32:40.626Z,89.00
2019-01-25T09:35:09.083Z,88.30
2019-01-25T09:37:37.309Z,88.80
2019-01-25T09:40:08.986Z,88.00
2019-01-25T09:42:37.047Z,88.40
2019-01-25T09:45:06.836Z,87.90
2019-01-25T09:47:34.950Z,86.60
2019-01-25T09:50:04.890Z,87.20
2019-01-25T09:52:32.950Z,89.20
2019-01-25T09:55:01.238Z,88.40
2019-01-25T09:57:29.278Z,90.10
2019-01-25T09:59:57.435Z,88.00
2019-01-25T10:02:25.450Z,86.20
2019-01-25T10:04:54.069Z,87.70
2019-01-25T10:07:22.266Z,85.90
2019-01-25T10:09:50.287Z,86.20
2019-01-25T10:12:18.377Z,85.50
2019-01-25T10:14:46.424Z,87.80
2019-01-25T10:17:14.555Z,87.40
2019-01-25T10:19:42.693Z,85.70
2019-01-25T10:22:10.782Z,85.70
2019-01-25T10:24:38.954Z,86.10
2019-01-25T10:27:07.046Z,86.30
2019-01-25T10:29:35.043Z,82.80
2019-01-25T10:32:03.788Z,81.60
2019-01-25T10:34:31.790Z,83.40
2019-01-25T10:36:59.868Z,85.10
2019-01-25T10:39:27.995Z,83.00
2019-01-25T10:41:56.211Z,83.70
2019-01-25T10:44:24.451Z,84.50
2019-01-25T10:46:52.567Z,83.80
2019-01-25T10:49:20.625Z,84.50
2019-01-25T10:51:48.725Z,84.80
2019-01-25T10:54:16.748Z,84.50
2019-01-25T10:56:45.086Z,84.20
2019-01-25T10:59:13.112Z,86.10
2019-01-25T11:01:41.196Z,85.30
2019-01-25T11:04:11.481Z,83.70
2019-01-25T11:06:39.391Z,84.80
2019-01-25T11:09:08.931Z,87.10
2019-01-25T11:11:37.067Z,89.90
2019-01-25T11:14:05.122Z,89.40
2019-01-25T11:16:33.179Z,90.50
2019-01-25T11:19:02.518Z,89.90
2019-01-25T11:21:30.693Z,90.50
2019-01-25T11:23:58.794Z,91.40
2019-01-25T11:26:26.949Z,91.60
2019-01-25T11:28:55.235Z,91.50
2019-01-25T11:31:23.489Z,90.70
2019-01-25T11:33:51.727Z,91.10
2019-01-25T11:36:19.944Z,92.20
2019-01-25T11:38:48.054Z,91.80
2019-01-25T11:41:16.154Z,90.60
2019-01-25T11:43:44.460Z,90.70
2019-01-25T11:46:13.503Z,90.90
2019-01-25T11:48:41.514Z,90.80
2019-01-25T11:51:09.559Z,89.80
2019-01-25T11:53:37.776Z,89.80
2019-01-25T11:56:06.049Z,90.80
2019-01-25T11:58:34.232Z,91.30
2019-01-25T12:01:02.552Z,91.90
2019-01-25T12:03:30.662Z,91.50
2019-01-25T12:05:58.783Z,91.70
2019-01-25T12:08:26.906Z,91.80
2019-01-25T12:10:55.029Z,92.00
2019-01-25T12:13:23.936Z,92.10
2019-01-25T12:15:51.960Z,92.20
2019-01-25T12:18:20.445Z,96.20
2019-01-25T12:20:48.741Z,95.70
2019-01-25T12:23:16.884Z,92.80
2019-01-25T12:25:45.188Z,92.70
2019-01-25T12:28:13.336Z,94.40
2019-01-25T12:30:41.662Z,93.30
2019-01-25T12:33:10.114Z,93.40
2019-01-25T12:35:43.708Z,93.90
2019-01-25T12:38:12.159Z,96.00
2019-01-25T12:40:42.160Z,93.70
2019-01-25T12:43:10.255Z,94.70
2019-01-25T12:45:38.363Z,94.80
2019-01-25T12:48:06.818Z,95.50
2019-01-25T12:50:49.222Z,95.50
2019-01-25T12:53:20.576Z,96.60
2019-01-25T12:55:48.775Z,95.60
2019-01-25T12:58:17.258Z,97.10
2019-01-25T13:00:45.635Z,95.80
2019-01-25T13:03:13.675Z,96.40
2019-01-25T13:05:43.299Z,96.90
2019-01-25T13:08:11.718Z,97.20
2019-01-25T13:10:39.933Z,97.10
2019-01-25T13:13:08.087Z,97.00
2019-01-25T13:15:38.176Z,97.10
2019-01-25T13:18:06.945Z,97.30
2019-01-25T13:20:39.581Z,97.30
2019-01-25T13:23:05.918Z,97.60
2019-01-25T13:25:34.327Z,97.20
2019-01-25T13:28:02.425Z,96.80
2019-01-25T13:30:30.748Z,97.20
2019-01-25T13:32:59.311Z,97.20
2019-01-25T13:35:27.562Z,96.70
2019-01-25T13:37:56.076Z,96.40
2019-01-25T13:40:24.731Z,96.60
2019-01-25T13:42:53.388Z,96.30
2019-01-25T13:45:22.924Z,96.20
2019-01-25T13:47:52.810Z,96.10
2019-01-25T13:50:24.337Z,96.20
2019-01-25T13:52:52.496Z,96.30
2019-01-25T13:55:20.700Z,96.20
2019-01-25T13:57:48.732Z,96.10
2019-01-25T14:00:22.939Z,96.10
2019-01-25T14:02:52.716Z,96.00
2019-01-25T14:05:21.076Z,95.50
2019-01-25T14:07:49.134Z,95.40
2019-01-25T14:10:21.749Z,95.40
2019-01-25T14:12:50.282Z,99.50
2019-01-25T14:15:18.318Z,99.90
2019-01-25T14:17:46.408Z,97.10
2019-01-25T14:20:23.212Z,94.00
2019-01-25T14:22:48.012Z,91.20
2019-01-25T14:25:16.658Z,92.90
2019-01-25T14:27:44.675Z,93.20
2019-01-25T14:30:23.565Z,94.10
2019-01-25T14:32:52.623Z,94.50
2019-01-25T14:35:20.672Z,94.70
2019-01-25T14:37:48.963Z,95.30
2019-01-25T14:40:17.239Z,94.90
2019-01-25T14:42:45.248Z,95.10
2019-01-25T14:45:13.746Z,95.30
2019-01-25T14:47:41.787Z,95.70
2019-01-25T14:50:14.738Z,95.90
2019-01-25T14:52:43.485Z,96.20
2019-01-25T14:55:12.044Z,95.90
2019-01-25T14:57:40.096Z,95.60
2019-01-25T15:00:08.778Z,95.80
2019-01-25T15:02:37.330Z,96.40
2019-01-25T15:05:08.906Z,96.20
2019-01-25T15:07:36.958Z,95.50
2019-01-25T15:10:09.875Z,95.80
2019-01-25T15:12:38.289Z,95.70
2019-01-25T15:15:09.638Z,95.90
2019-01-25T15:17:37.904Z,96.00
2019-01-25T15:20:09.913Z,95.90
2019-01-25T15:22:37.930Z,95.50
2019-01-25T15:25:06.440Z,96.20
2019-01-25T15:27:34.662Z,96.70
2019-01-25T15:30:06.896Z,96.50
2019-01-25T15:32:34.966Z,96.80
2019-01-25T15:35:04.176Z,97.10
2019-01-25T15:37:32.366Z,96.90
2019-01-25T15:40:00.515Z,96.90
2019-01-25T15:42:28.567Z,97.40
2019-01-25T15:44:56.639Z,97.30
2019-01-25T15:47:24.721Z,97.60
2019-01-25T15:49:52.861Z,97.80
2019-01-25T15:52:20.931Z,97.00
2019-01-25T15:54:49.126Z,96.80
2019-01-25T15:57:17.250Z,96.50
2019-01-25T15:59:45.586Z,97.00
2019-01-25T16:02:13.714Z,97.30
2019-01-25T16:04:41.926Z,97.30
2019-01-25T16:07:10.100Z,96.80
2019-01-25T16:09:38.087Z,96.80
2019-01-25T16:12:06.155Z,96.60
2019-01-25T16:14:35.231Z,96.30
2019-01-25T16:17:05.796Z,95.90
2019-01-25T16:19:35.036Z,95.70
2019-01-25T16:22:05.187Z,95.90
2019-01-25T16:24:33.212Z,96.40
2019-01-25T16:27:01.477Z,96.60
2019-01-25T16:29:29.540Z,96.30
2019-01-25T16:31:57.597Z,96.10
2019-01-25T16:34:25.689Z,95.90
2019-01-25T16:36:53.727Z,95.90
2019-01-25T16:39:21.803Z,95.90
2019-01-25T16:41:49.931Z,95.90
2019-01-25T16:44:25.374Z,96.40
2019-01-25T16:46:47.985Z,96.40
2019-01-25T16:49:16.265Z,96.40
2019-01-25T16:51:44.349Z,96.50
2019-01-25T16:54:12.443Z,96.60
2019-01-25T16:56:40.498Z,97.10
2019-01-25T16:59:08.677Z,97.10
2019-01-25T17:01:36.775Z,97.10
2019-01-25T17:04:04.841Z,97.40
2019-01-25T17:06:33.101Z,97.40
2019-01-25T17:09:01.391Z,97.30
2019-01-25T17:11:29.890Z,97.30
2019-01-25T17:13:58.149Z,97.40
2019-01-25T17:16:26.399Z,97.40
2019-01-25T17:18:54.437Z,97.10
2019-01-25T17:21:22.483Z,97.00
2019-01-25T17:23:50.595Z,97.00
2019-01-25T17:26:18.916Z,96.90
2019-01-25T17:28:47.099Z,97.00
2019-01-25T17:31:15.270Z,97.10
2019-01-25T17:33:43.423Z,97.30
2019-01-25T17:36:11.549Z,97.50
2019-01-25T17:38:39.645Z,97.40
2019-01-25T17:41:07.767Z,97.80
2019-01-25T17:43:35.924Z,97.30
2019-01-25T17:46:04.419Z,97.50
2019-01-25T17:48:32.551Z,97.80
2019-01-25T17:51:00.627Z,97.90
2019-01-25T17:53:28.731Z,97.60
2019-01-25T17:55:56.970Z,97.50
2019-01-25T17:58:25.475Z,97.50
2019-01-25T18:00:56.781Z,97.50
2019-01-25T18:03:25.209Z,98.00
2019-01-25T18:05:54.230Z,98.60
2019-01-25T18:08:22.416Z,99.20
2019-01-25T18:10:50.687Z,99.10
2019-01-25T18:13:18.823Z,98.90
2019-01-25T18:15:46.917Z,98.70
2019-01-25T18:18:15.116Z,98.40
2019-01-25T18:20:43.357Z,99.00
2019-01-25T18:23:12.548Z,99.00
2019-01-25T18:26:15.578Z,98.90
2019-01-25T18:29:17.788Z,99.00
2019-01-25T18:31:45.856Z,98.90
2019-01-25T18:34:14.550Z,99.20
2019-01-25T18:36:42.726Z,99.60
2019-01-25T18:39:10.862Z,99.90
2019-01-25T18:41:38.873Z,99.70
2019-01-25T18:44:07.215Z,99.80
2019-01-25T18:46:35.208Z,99.90
2019-01-25T18:49:03.855Z,99.90
2019-01-25T18:51:31.935Z,99.90
2019-01-25T18:53:59.964Z,99.90
2019-01-25T18:56:28.059Z,99.90
2019-01-25T18:58:56.086Z,99.90
2019-01-25T19:01:24.243Z,99.90
2019-01-25T19:03:52.271Z,99.90
2019-01-25T19:06:20.346Z,99.90
2019-01-25T19:08:48.411Z,99.90
2019-01-25T19:11:16.633Z,99.90
2019-01-25T19:13:44.745Z,99.90
2019-01-25T19:16:12.882Z,99.90
2019-01-25T19:18:41.067Z,99.90
2019-01-25T19:21:09.191Z,99.90
2019-01-25T19:23:38.165Z,99.90
2019-01-25T19:26:06.353Z,99.90
2019-01-25T19:28:34.456Z,99.90
2019-01-25T19:31:02.442Z,99.90
2019-01-25T19:33:31.942Z,99.90
2019-01-25T19:36:00.000Z,99.90
2019-01-25T19:38:30.533Z,99.90
2019-01-25T19:40:58.647Z,99.90
2019-01-25T19:43:26.895Z,99.90
2019-01-25T19:45:54.955Z,99.90
2019-01-25T19:48:23.024Z,99.90
2019-01-25T19:50:51.091Z,99.90
2019-01-25T19:53:19.261Z,99.90
2019-01-25T19:55:47.375Z,99.90
2019-01-25T19:58:17.638Z,99.90
2019-01-25T20:00:46.110Z,99.90
2019-01-25T20:03:14.584Z,99.90
2019-01-25T20:05:42.737Z,99.90
2019-01-25T20:08:12.212Z,99.90
2019-01-25T20:10:40.215Z,99.90
2019-01-25T20:13:10.474Z,99.90
2019-01-25T20:15:38.660Z,99.90
2019-01-25T20:18:06.788Z,99.90
2019-01-25T20:20:35.746Z,99.90
2019-01-25T20:23:04.289Z,99.90
2019-01-25T20:25:33.766Z,99.90
2019-01-25T20:28:02.094Z,99.90
2019-01-25T20:30:31.820Z,99.90
2019-01-25T20:33:02.131Z,99.90
2019-01-25T20:35:40.681Z,99.90
2019-01-25T20:38:09.228Z,99.90
2019-01-25T20:40:37.893Z,99.90
2019-01-25T20:43:05.943Z,99.90
2019-01-25T20:45:36.790Z,99.90
2019-01-25T20:48:06.720Z,99.90
2019-01-25T20:50:36.186Z,99.90
2019-01-25T20:53:06.258Z,99.90
2019-01-25T20:55:34.349Z,99.90
2019-01-25T20:58:02.465Z,99.90
2019-01-25T21:00:33.677Z,99.90
2019-01-25T21:03:02.857Z,99.90
2019-01-25T21:05:31.783Z,99.90
2019-01-25T21:07:59.863Z,99.90
2019-01-25T21:10:28.194Z,99.90
2019-01-25T21:12:56.425Z,99.90
2019-01-25T21:15:25.858Z,99.90
2019-01-25T21:17:54.595Z,99.90
2019-01-25T21:20:30.495Z,99.90
2019-01-25T21:22:59.000Z,99.90
2019-01-25T21:25:27.109Z,99.90
2019-01-25T21:27:55.417Z,99.90
2019-01-25T21:30:27.307Z,99.90
2019-01-25T21:32:55.634Z,99.90
2019-01-25T21:35:23.733Z,99.90
2019-01-25T21:37:51.970Z,99.90
2019-01-25T21:40:23.884Z,99.90
2019-01-25T21:42:51.997Z,99.90
2019-01-25T21:45:22.498Z,99.90
2019-01-25T21:47:50.611Z,99.90
2019-01-25T21:50:22.118Z,99.90
2019-01-25T21:52:50.473Z,99.90
2019-01-25T21:55:18.747Z,99.90
2019-01-25T21:57:46.933Z,99.90
2019-01-25T22:00:20.121Z,99.90
2019-01-25T22:02:48.343Z,99.90
2019-01-25T22:05:17.261Z,99.90
2019-01-25T22:07:45.446Z,99.90
2019-01-25T22:10:17.945Z,99.90
2019-01-25T22:12:46.148Z,99.90
2019-01-25T22:15:15.940Z,99.90
2019-01-25T22:17:44.206Z,99.90
2019-01-25T22:20:25.558Z,99.90
2019-01-25T22:22:53.967Z,99.90
2019-01-25T22:25:24.331Z,99.90
2019-01-25T22:27:55.388Z,99.90
2019-01-25T22:30:24.876Z,99.90
2019-01-25T22:32:53.138Z,99.90
2019-01-25T22:35:24.059Z,99.90
2019-01-25T22:37:53.907Z,99.90
2019-01-25T22:40:27.680Z,99.90
2019-01-25T22:42:56.473Z,99.90
2019-01-25T22:45:27.287Z,99.90
2019-01-25T22:47:57.140Z,99.90
2019-01-25T22:50:28.363Z,99.90
2019-01-25T22:52:56.518Z,99.90
2019-01-25T22:55:26.150Z,99.90
2019-01-25T22:57:54.286Z,99.90
2019-01-25T23:01:00.873Z,99.90
2019-01-25T23:03:55.063Z,99.90
2019-01-25T23:06:44.141Z,99.90
2019-01-25T23:09:46.931Z,99.90
2019-01-25T23:12:14.953Z,99.90
2019-01-25T23:14:43.103Z,99.90
2019-01-25T23:17:11.655Z,99.90
2019-01-25T23:19:40.160Z,99.90
2019-01-25T23:22:08.243Z,99.90
2019-01-25T23:24:36.295Z,99.90
2019-01-25T23:27:04.520Z,99.90
2019-01-25T23:29:33.707Z,99.90
2019-01-25T23:32:01.741Z,99.90
2019-01-25T23:34:30.996Z,99.90
2019-01-25T23:36:59.382Z,99.90
2019-01-25T23:39:27.474Z,99.90
2019-01-25T23:41:55.712Z,99.90
2019-01-25T23:44:24.090Z,99.90
2019-01-25T23:46:52.303Z,99.90
2019-01-25T23:49:20.327Z,99.90
2019-01-25T23:51:48.335Z,99.90
2019-01-25T23:54:16.420Z,99.90
2019-01-25T23:56:44.443Z,99.90
2019-01-25T23:59:12.904Z,99.90
